sensor_id;sensor_type;location;lat;lon;timestamp;P1;durP1;ratioP1;P2;durP2;ratioP2
48665;SDS011;34452;50.796;4.994;2022-09-13T00:00:37;8.38;;;2.30;;
48665;SDS011;34452;50.796;4.994;2022-09-13T00:03:03;4.13;;;2.45;;
48665;SDS011;34452;50.796;4.994;2022-09-13T00:05:29;4.72;;;2.20;;
48665;SDS011;34452;50.796;4.994;2022-09-13T00:07:55;3.58;;;2.33;;
48665;SDS011;34452;50.796;4.994;2022-09-13T00:10:21;3.53;;;2.10;;
48665;SDS011;34452;50.796;4.994;2022-09-13T00:12:48;4.60;;;2.50;;
48665;SDS011;34452;50.796;4.994;2022-09-13T00:15:14;3.50;;;1.75;;
48665;SDS011;34452;50.796;4.994;2022-09-13T00:17:40;5.30;;;2.15;;
48665;SDS011;34452;50.796;4.994;2022-09-13T00:20:06;9.13;;;2.20;;
48665;SDS011;34452;50.796;4.994;2022-09-13T00:22:32;3.42;;;2.08;;
48665;SDS011;34452;50.796;4.994;2022-09-13T00:24:58;2.75;;;1.95;;
48665;SDS011;34452;50.796;4.994;2022-09-13T00:27:24;6.57;;;1.80;;
48665;SDS011;34452;50.796;4.994;2022-09-13T00:29:50;13.60;;;1.73;;
48665;SDS011;34452;50.796;4.994;2022-09-13T00:32:16;4.28;;;2.22;;
48665;SDS011;34452;50.796;4.994;2022-09-13T00:34:42;7.60;;;2.55;;
48665;SDS011;34452;50.796;4.994;2022-09-13T00:37:07;4.70;;;2.10;;
48665;SDS011;34452;50.796;4.994;2022-09-13T00:39:33;2.35;;;1.70;;
48665;SDS011;34452;50.796;4.994;2022-09-13T00:41:59;5.50;;;1.83;;
48665;SDS011;34452;50.796;4.994;2022-09-13T00:47:10;3.55;;;2.00;;
48665;SDS011;34452;50.796;4.994;2022-09-13T00:49:39;4.18;;;1.85;;
48665;SDS011;34452;50.796;4.994;2022-09-13T00:52:07;3.03;;;1.98;;
48665;SDS011;34452;50.796;4.994;2022-09-13T00:54:39;3.42;;;2.22;;
48665;SDS011;34452;50.796;4.994;2022-09-13T00:57:10;3.35;;;2.20;;
48665;SDS011;34452;50.796;4.994;2022-09-13T00:59:39;6.85;;;2.42;;
48665;SDS011;34452;50.796;4.994;2022-09-13T01:02:08;3.13;;;2.38;;
48665;SDS011;34452;50.796;4.994;2022-09-13T01:04:34;3.97;;;2.28;;
48665;SDS011;34452;50.796;4.994;2022-09-13T01:07:02;4.22;;;2.60;;
48665;SDS011;34452;50.796;4.994;2022-09-13T01:09:31;2.90;;;1.83;;
48665;SDS011;34452;50.796;4.994;2022-09-13T01:12:02;4.07;;;2.47;;
48665;SDS011;34452;50.796;4.994;2022-09-13T01:14:45;3.13;;;2.15;;
48665;SDS011;34452;50.796;4.994;2022-09-13T01:17:12;3.55;;;2.15;;
48665;SDS011;34452;50.796;4.994;2022-09-13T01:19:37;8.45;;;2.70;;
48665;SDS011;34452;50.796;4.994;2022-09-13T01:25:02;3.40;;;2.20;;
48665;SDS011;34452;50.796;4.994;2022-09-13T01:30:42;7.35;;;2.10;;
48665;SDS011;34452;50.796;4.994;2022-09-13T01:38:51;3.97;;;1.98;;
48665;SDS011;34452;50.796;4.994;2022-09-13T01:50:21;4.22;;;1.73;;
48665;SDS011;34452;50.796;4.994;2022-09-13T01:52:54;9.90;;;2.05;;
48665;SDS011;34452;50.796;4.994;2022-09-13T01:55:25;4.22;;;2.25;;
48665;SDS011;34452;50.796;4.994;2022-09-13T02:00:47;4.68;;;1.67;;
48665;SDS011;34452;50.796;4.994;2022-09-13T02:03:26;3.15;;;1.63;;
48665;SDS011;34452;50.796;4.994;2022-09-13T02:06:00;3.58;;;1.70;;
48665;SDS011;34452;50.796;4.994;2022-09-13T02:08:33;4.38;;;1.83;;
48665;SDS011;34452;50.796;4.994;2022-09-13T02:11:14;2.50;;;1.55;;
48665;SDS011;34452;50.796;4.994;2022-09-13T02:16:28;2.53;;;1.85;;
48665;SDS011;34452;50.796;4.994;2022-09-13T02:19:02;6.78;;;1.55;;
48665;SDS011;34452;50.796;4.994;2022-09-13T02:21:36;4.15;;;1.85;;
48665;SDS011;34452;50.796;4.994;2022-09-13T02:24:05;4.90;;;1.83;;
48665;SDS011;34452;50.796;4.994;2022-09-13T02:26:36;5.78;;;1.40;;
48665;SDS011;34452;50.796;4.994;2022-09-13T02:29:04;12.13;;;2.85;;
48665;SDS011;34452;50.796;4.994;2022-09-13T02:31:33;4.95;;;1.90;;
48665;SDS011;34452;50.796;4.994;2022-09-13T02:34:07;2.65;;;1.70;;
48665;SDS011;34452;50.796;4.994;2022-09-13T02:36:38;2.40;;;1.60;;
48665;SDS011;34452;50.796;4.994;2022-09-13T02:39:10;4.07;;;1.60;;
48665;SDS011;34452;50.796;4.994;2022-09-13T02:44:35;2.67;;;1.60;;
48665;SDS011;34452;50.796;4.994;2022-09-13T02:55:56;7.70;;;1.80;;
48665;SDS011;34452;50.796;4.994;2022-09-13T02:58:27;2.55;;;1.67;;
48665;SDS011;34452;50.796;4.994;2022-09-13T03:01:02;3.35;;;1.50;;
48665;SDS011;34452;50.796;4.994;2022-09-13T03:03:28;6.18;;;1.90;;
48665;SDS011;34452;50.796;4.994;2022-09-13T03:05:54;3.55;;;1.60;;
48665;SDS011;34452;50.796;4.994;2022-09-13T03:08:19;4.53;;;2.20;;
48665;SDS011;34452;50.796;4.994;2022-09-13T03:10:50;4.68;;;1.98;;
48665;SDS011;34452;50.796;4.994;2022-09-13T03:13:31;4.30;;;2.00;;
48665;SDS011;34452;50.796;4.994;2022-09-13T03:18:54;3.97;;;1.83;;
48665;SDS011;34452;50.796;4.994;2022-09-13T03:24:46;8.25;;;2.17;;
48665;SDS011;34452;50.796;4.994;2022-09-13T03:30:19;7.10;;;2.35;;
48665;SDS011;34452;50.796;4.994;2022-09-13T03:32:48;3.47;;;2.53;;
48665;SDS011;34452;50.796;4.994;2022-09-13T03:38:07;10.98;;;2.40;;
48665;SDS011;34452;50.796;4.994;2022-09-13T03:43:38;4.88;;;2.55;;
48665;SDS011;34452;50.796;4.994;2022-09-13T03:46:22;6.90;;;2.60;;
48665;SDS011;34452;50.796;4.994;2022-09-13T03:48:55;3.67;;;2.50;;
48665;SDS011;34452;50.796;4.994;2022-09-13T03:51:24;5.90;;;2.42;;
48665;SDS011;34452;50.796;4.994;2022-09-13T03:53:53;6.28;;;2.60;;
48665;SDS011;34452;50.796;4.994;2022-09-13T03:56:22;5.40;;;2.33;;
48665;SDS011;34452;50.796;4.994;2022-09-13T03:58:48;3.22;;;2.35;;
48665;SDS011;34452;50.796;4.994;2022-09-13T04:01:16;4.10;;;2.40;;
48665;SDS011;34452;50.796;4.994;2022-09-13T04:03:44;4.03;;;2.33;;
48665;SDS011;34452;50.796;4.994;2022-09-13T04:06:10;5.72;;;2.70;;
48665;SDS011;34452;50.796;4.994;2022-09-13T04:08:36;3.80;;;2.37;;
48665;SDS011;34452;50.796;4.994;2022-09-13T04:11:01;4.63;;;2.33;;
48665;SDS011;34452;50.796;4.994;2022-09-13T04:13:27;4.38;;;2.25;;
48665;SDS011;34452;50.796;4.994;2022-09-13T04:15:53;5.80;;;2.70;;
48665;SDS011;34452;50.796;4.994;2022-09-13T04:18:19;3.90;;;2.63;;
48665;SDS011;34452;50.796;4.994;2022-09-13T04:20:51;2.95;;;2.00;;
48665;SDS011;34452;50.796;4.994;2022-09-13T04:23:18;4.07;;;2.58;;
48665;SDS011;34452;50.796;4.994;2022-09-13T04:25:43;4.80;;;2.00;;
48665;SDS011;34452;50.796;4.994;2022-09-13T04:30:35;3.40;;;2.20;;
48665;SDS011;34452;50.796;4.994;2022-09-13T04:33:01;3.83;;;2.42;;
48665;SDS011;34452;50.796;4.994;2022-09-13T04:35:27;3.08;;;2.47;;
48665;SDS011;34452;50.796;4.994;2022-09-13T04:37:54;3.45;;;2.55;;
48665;SDS011;34452;50.796;4.994;2022-09-13T04:40:22;7.22;;;2.60;;
48665;SDS011;34452;50.796;4.994;2022-09-13T04:42:48;4.53;;;2.42;;
48665;SDS011;34452;50.796;4.994;2022-09-13T04:45:14;2.75;;;2.30;;
48665;SDS011;34452;50.796;4.994;2022-09-13T04:47:40;3.13;;;2.10;;
48665;SDS011;34452;50.796;4.994;2022-09-13T04:50:06;5.45;;;2.40;;
48665;SDS011;34452;50.796;4.994;2022-09-13T04:52:32;5.78;;;2.50;;
48665;SDS011;34452;50.796;4.994;2022-09-13T04:54:58;4.18;;;2.20;;
48665;SDS011;34452;50.796;4.994;2022-09-13T04:57:26;3.28;;;2.10;;
48665;SDS011;34452;50.796;4.994;2022-09-13T04:59:52;7.47;;;2.30;;
48665;SDS011;34452;50.796;4.994;2022-09-13T05:02:17;3.63;;;2.15;;
48665;SDS011;34452;50.796;4.994;2022-09-13T05:04:43;3.07;;;2.10;;
48665;SDS011;34452;50.796;4.994;2022-09-13T05:07:09;3.90;;;2.08;;
48665;SDS011;34452;50.796;4.994;2022-09-13T05:09:35;3.30;;;1.98;;
48665;SDS011;34452;50.796;4.994;2022-09-13T05:12:00;3.33;;;2.13;;
48665;SDS011;34452;50.796;4.994;2022-09-13T05:14:26;2.53;;;2.05;;
48665;SDS011;34452;50.796;4.994;2022-09-13T05:16:52;2.47;;;2.00;;
48665;SDS011;34452;50.796;4.994;2022-09-13T05:19:18;3.03;;;1.93;;
48665;SDS011;34452;50.796;4.994;2022-09-13T05:21:43;6.40;;;2.00;;
48665;SDS011;34452;50.796;4.994;2022-09-13T05:24:09;4.45;;;2.10;;
48665;SDS011;34452;50.796;4.994;2022-09-13T05:29:01;4.30;;;1.63;;
48665;SDS011;34452;50.796;4.994;2022-09-13T05:31:29;1.88;;;1.40;;
48665;SDS011;34452;50.796;4.994;2022-09-13T05:33:58;3.80;;;1.80;;
48665;SDS011;34452;50.796;4.994;2022-09-13T05:36:27;2.90;;;1.70;;
48665;SDS011;34452;50.796;4.994;2022-09-13T05:41:19;2.15;;;1.58;;
48665;SDS011;34452;50.796;4.994;2022-09-13T05:46:12;6.43;;;1.90;;
48665;SDS011;34452;50.796;4.994;2022-09-13T05:48:40;4.25;;;1.75;;
48665;SDS011;34452;50.796;4.994;2022-09-13T05:53:33;7.70;;;2.30;;
48665;SDS011;34452;50.796;4.994;2022-09-13T05:58:25;4.68;;;1.83;;
48665;SDS011;34452;50.796;4.994;2022-09-13T06:00:52;2.78;;;1.85;;
48665;SDS011;34452;50.796;4.994;2022-09-13T06:03:19;7.53;;;2.10;;
48665;SDS011;34452;50.796;4.994;2022-09-13T06:05:45;5.10;;;1.63;;
48665;SDS011;34452;50.796;4.994;2022-09-13T06:08:11;3.33;;;2.00;;
48665;SDS011;34452;50.796;4.994;2022-09-13T06:10:36;4.77;;;2.33;;
48665;SDS011;34452;50.796;4.994;2022-09-13T06:13:02;2.57;;;1.83;;
48665;SDS011;34452;50.796;4.994;2022-09-13T06:15:28;2.40;;;1.63;;
48665;SDS011;34452;50.796;4.994;2022-09-13T06:17:53;2.65;;;1.80;;
48665;SDS011;34452;50.796;4.994;2022-09-13T06:20:19;6.40;;;1.90;;
48665;SDS011;34452;50.796;4.994;2022-09-13T06:22:46;2.22;;;1.95;;
48665;SDS011;34452;50.796;4.994;2022-09-13T06:25:12;3.17;;;1.50;;
48665;SDS011;34452;50.796;4.994;2022-09-13T06:27:38;3.47;;;1.70;;
48665;SDS011;34452;50.796;4.994;2022-09-13T06:30:04;3.13;;;1.77;;
48665;SDS011;34452;50.796;4.994;2022-09-13T06:32:32;3.40;;;1.90;;
48665;SDS011;34452;50.796;4.994;2022-09-13T06:34:59;3.47;;;1.63;;
48665;SDS011;34452;50.796;4.994;2022-09-13T06:37:24;3.28;;;1.98;;
48665;SDS011;34452;50.796;4.994;2022-09-13T06:39:50;5.63;;;2.00;;
48665;SDS011;34452;50.796;4.994;2022-09-13T06:42:16;5.15;;;1.95;;
48665;SDS011;34452;50.796;4.994;2022-09-13T06:44:42;6.07;;;2.08;;
48665;SDS011;34452;50.796;4.994;2022-09-13T06:47:10;3.75;;;1.80;;
48665;SDS011;34452;50.796;4.994;2022-09-13T06:49:36;3.55;;;1.98;;
48665;SDS011;34452;50.796;4.994;2022-09-13T06:52:03;6.60;;;2.33;;
48665;SDS011;34452;50.796;4.994;2022-09-13T06:54:29;5.10;;;2.30;;
48665;SDS011;34452;50.796;4.994;2022-09-13T06:56:54;4.63;;;1.85;;
48665;SDS011;34452;50.796;4.994;2022-09-13T06:59:20;5.38;;;1.85;;
48665;SDS011;34452;50.796;4.994;2022-09-13T07:01:46;3.13;;;1.80;;
48665;SDS011;34452;50.796;4.994;2022-09-13T07:04:13;3.78;;;2.00;;
48665;SDS011;34452;50.796;4.994;2022-09-13T07:06:41;5.00;;;1.83;;
48665;SDS011;34452;50.796;4.994;2022-09-13T07:09:10;8.32;;;2.45;;
48665;SDS011;34452;50.796;4.994;2022-09-13T07:11:38;3.20;;;1.85;;
48665;SDS011;34452;50.796;4.994;2022-09-13T07:14:05;2.72;;;1.60;;
48665;SDS011;34452;50.796;4.994;2022-09-13T07:16:33;4.05;;;2.08;;
48665;SDS011;34452;50.796;4.994;2022-09-13T07:21:47;3.83;;;2.00;;
48665;SDS011;34452;50.796;4.994;2022-09-13T07:24:14;7.65;;;2.00;;
48665;SDS011;34452;50.796;4.994;2022-09-13T07:26:41;3.00;;;1.70;;
48665;SDS011;34452;50.796;4.994;2022-09-13T07:29:07;4.07;;;1.95;;
48665;SDS011;34452;50.796;4.994;2022-09-13T07:31:36;4.03;;;2.17;;
48665;SDS011;34452;50.796;4.994;2022-09-13T07:34:05;3.30;;;1.80;;
48665;SDS011;34452;50.796;4.994;2022-09-13T07:36:35;3.28;;;1.80;;
48665;SDS011;34452;50.796;4.994;2022-09-13T07:39:01;4.05;;;2.10;;
48665;SDS011;34452;50.796;4.994;2022-09-13T07:41:28;4.18;;;1.80;;
48665;SDS011;34452;50.796;4.994;2022-09-13T07:43:55;3.35;;;1.90;;
48665;SDS011;34452;50.796;4.994;2022-09-13T07:46:22;5.35;;;2.00;;
48665;SDS011;34452;50.796;4.994;2022-09-13T07:48:51;5.05;;;2.60;;
48665;SDS011;34452;50.796;4.994;2022-09-13T07:51:19;4.13;;;2.45;;
48665;SDS011;34452;50.796;4.994;2022-09-13T07:53:47;3.58;;;1.83;;
48665;SDS011;34452;50.796;4.994;2022-09-13T07:56:14;6.13;;;2.00;;
48665;SDS011;34452;50.796;4.994;2022-09-13T07:58:44;3.35;;;1.63;;
48665;SDS011;34452;50.796;4.994;2022-09-13T08:01:12;4.93;;;1.88;;
48665;SDS011;34452;50.796;4.994;2022-09-13T08:03:42;7.28;;;2.03;;
48665;SDS011;34452;50.796;4.994;2022-09-13T08:06:08;3.30;;;2.08;;
48665;SDS011;34452;50.796;4.994;2022-09-13T08:08:35;5.50;;;2.10;;
48665;SDS011;34452;50.796;4.994;2022-09-13T08:11:02;7.70;;;2.17;;
48665;SDS011;34452;50.796;4.994;2022-09-13T08:13:29;3.60;;;2.13;;
48665;SDS011;34452;50.796;4.994;2022-09-13T08:18:43;5.25;;;2.45;;
48665;SDS011;34452;50.796;4.994;2022-09-13T08:21:10;4.40;;;2.40;;
48665;SDS011;34452;50.796;4.994;2022-09-13T08:23:35;6.40;;;2.85;;
48665;SDS011;34452;50.796;4.994;2022-09-13T08:26:01;6.20;;;2.65;;
48665;SDS011;34452;50.796;4.994;2022-09-13T08:28:28;5.80;;;3.45;;
48665;SDS011;34452;50.796;4.994;2022-09-13T08:30:55;4.20;;;2.17;;
48665;SDS011;34452;50.796;4.994;2022-09-13T08:33:26;4.68;;;2.45;;
48665;SDS011;34452;50.796;4.994;2022-09-13T08:35:52;7.50;;;2.47;;
48665;SDS011;34452;50.796;4.994;2022-09-13T08:38:19;3.08;;;2.40;;
48665;SDS011;34452;50.796;4.994;2022-09-13T08:40:49;4.28;;;2.38;;
48665;SDS011;34452;50.796;4.994;2022-09-13T08:43:32;6.95;;;2.00;;
48665;SDS011;34452;50.796;4.994;2022-09-13T08:46:01;4.85;;;2.00;;
48665;SDS011;34452;50.796;4.994;2022-09-13T08:48:34;2.88;;;1.52;;
48665;SDS011;34452;50.796;4.994;2022-09-13T08:51:04;5.13;;;1.80;;
48665;SDS011;34452;50.796;4.994;2022-09-13T08:53:42;2.38;;;1.40;;
48665;SDS011;34452;50.796;4.994;2022-09-13T08:56:12;4.00;;;1.50;;
48665;SDS011;34452;50.796;4.994;2022-09-13T08:58:49;3.65;;;1.83;;
48665;SDS011;34452;50.796;4.994;2022-09-13T09:12:23;5.07;;;2.13;;
48665;SDS011;34452;50.796;4.994;2022-09-13T09:14:55;4.43;;;2.22;;
48665;SDS011;34452;50.796;4.994;2022-09-13T09:17:29;3.00;;;1.85;;
48665;SDS011;34452;50.796;4.994;2022-09-13T09:20:07;3.87;;;2.60;;
48665;SDS011;34452;50.796;4.994;2022-09-13T09:22:57;5.40;;;3.05;;
48665;SDS011;34452;50.796;4.994;2022-09-13T09:25:26;12.05;;;5.63;;
48665;SDS011;34452;50.796;4.994;2022-09-13T09:27:52;8.23;;;4.47;;
48665;SDS011;34452;50.796;4.994;2022-09-13T09:30:19;12.30;;;2.80;;
48665;SDS011;34452;50.796;4.994;2022-09-13T09:38:22;4.30;;;2.33;;
48665;SDS011;34452;50.796;4.994;2022-09-13T09:46:55;7.50;;;2.65;;
48665;SDS011;34452;50.796;4.994;2022-09-13T09:52:48;6.22;;;2.53;;
48665;SDS011;34452;50.796;4.994;2022-09-13T09:55:28;11.77;;;3.00;;
48665;SDS011;34452;50.796;4.994;2022-09-13T09:57:57;8.30;;;2.92;;
48665;SDS011;34452;50.796;4.994;2022-09-13T10:00:24;7.93;;;3.42;;
48665;SDS011;34452;50.796;4.994;2022-09-13T10:02:55;7.00;;;2.90;;
48665;SDS011;34452;50.796;4.994;2022-09-13T10:05:23;6.97;;;2.28;;
48665;SDS011;34452;50.796;4.994;2022-09-13T10:07:53;4.15;;;2.40;;
48665;SDS011;34452;50.796;4.994;2022-09-13T10:10:23;8.73;;;2.78;;
48665;SDS011;34452;50.796;4.994;2022-09-13T10:12:55;6.22;;;2.35;;
48665;SDS011;34452;50.796;4.994;2022-09-13T10:15:23;5.43;;;2.50;;
48665;SDS011;34452;50.796;4.994;2022-09-13T10:20:39;4.68;;;2.08;;
48665;SDS011;34452;50.796;4.994;2022-09-13T10:31:41;8.30;;;2.30;;
48665;SDS011;34452;50.796;4.994;2022-09-13T10:34:12;8.20;;;1.90;;
48665;SDS011;34452;50.796;4.994;2022-09-13T10:36:59;3.07;;;1.77;;
48665;SDS011;34452;50.796;4.994;2022-09-13T10:39:30;1.70;;;1.10;;
48665;SDS011;34452;50.796;4.994;2022-09-13T10:42:00;2.83;;;1.48;;
48665;SDS011;34452;50.796;4.994;2022-09-13T10:44:31;3.92;;;1.63;;
48665;SDS011;34452;50.796;4.994;2022-09-13T10:47:10;2.53;;;1.30;;
48665;SDS011;34452;50.796;4.994;2022-09-13T10:49:45;6.10;;;1.55;;
48665;SDS011;34452;50.796;4.994;2022-09-13T10:52:25;2.22;;;1.55;;
48665;SDS011;34452;50.796;4.994;2022-09-13T10:57:54;2.75;;;1.27;;
48665;SDS011;34452;50.796;4.994;2022-09-13T11:03:34;3.15;;;1.58;;
48665;SDS011;34452;50.796;4.994;2022-09-13T11:20:40;2.22;;;1.00;;
48665;SDS011;34452;50.796;4.994;2022-09-13T11:23:13;3.35;;;1.42;;
48665;SDS011;34452;50.796;4.994;2022-09-13T11:25:58;2.97;;;1.30;;
48665;SDS011;34452;50.796;4.994;2022-09-13T11:34:32;3.42;;;1.23;;
48665;SDS011;34452;50.796;4.994;2022-09-13T11:37:37;7.65;;;1.63;;
48665;SDS011;34452;50.796;4.994;2022-09-13T11:42:49;2.67;;;1.25;;
48665;SDS011;34452;50.796;4.994;2022-09-13T11:45:27;7.85;;;1.17;;
48665;SDS011;34452;50.796;4.994;2022-09-13T11:50:56;11.65;;;1.95;;
48665;SDS011;34452;50.796;4.994;2022-09-13T11:53:34;8.10;;;1.73;;
48665;SDS011;34452;50.796;4.994;2022-09-13T12:01:33;2.60;;;1.13;;
48665;SDS011;34452;50.796;4.994;2022-09-13T12:04:06;3.20;;;1.10;;
48665;SDS011;34452;50.796;4.994;2022-09-13T12:06:47;5.85;;;1.10;;
48665;SDS011;34452;50.796;4.994;2022-09-13T12:11:49;2.40;;;1.30;;
48665;SDS011;34452;50.796;4.994;2022-09-13T12:14:22;1.63;;;1.05;;
48665;SDS011;34452;50.796;4.994;2022-09-13T12:16:53;3.72;;;1.15;;
48665;SDS011;34452;50.796;4.994;2022-09-13T12:19:28;7.45;;;2.08;;
48665;SDS011;34452;50.796;4.994;2022-09-13T12:22:10;3.92;;;1.33;;
48665;SDS011;34452;50.796;4.994;2022-09-13T12:24:41;8.02;;;1.65;;
48665;SDS011;34452;50.796;4.994;2022-09-13T12:27:28;2.80;;;1.23;;
48665;SDS011;34452;50.796;4.994;2022-09-13T12:32:28;3.90;;;1.23;;
48665;SDS011;34452;50.796;4.994;2022-09-13T12:35:11;6.00;;;1.52;;
48665;SDS011;34452;50.796;4.994;2022-09-13T12:46:54;2.58;;;1.40;;
48665;SDS011;34452;50.796;4.994;2022-09-13T12:58:37;9.95;;;1.95;;
48665;SDS011;34452;50.796;4.994;2022-09-13T13:01:07;3.55;;;1.80;;
48665;SDS011;34452;50.796;4.994;2022-09-13T13:18:18;2.15;;;1.23;;
48665;SDS011;34452;50.796;4.994;2022-09-13T13:31:44;3.60;;;1.17;;
48665;SDS011;34452;50.796;4.994;2022-09-13T13:39:37;3.95;;;1.40;;
48665;SDS011;34452;50.796;4.994;2022-09-13T13:42:35;4.00;;;1.58;;
48665;SDS011;34452;50.796;4.994;2022-09-13T13:49:44;3.45;;;1.58;;
48665;SDS011;34452;50.796;4.994;2022-09-13T14:00:57;5.57;;;1.85;;
48665;SDS011;34452;50.796;4.994;2022-09-13T14:03:27;6.10;;;2.00;;
48665;SDS011;34452;50.796;4.994;2022-09-13T14:06:20;2.45;;;1.60;;
48665;SDS011;34452;50.796;4.994;2022-09-13T14:17:44;2.80;;;1.83;;
48665;SDS011;34452;50.796;4.994;2022-09-13T14:20:25;5.30;;;1.65;;
48665;SDS011;34452;50.796;4.994;2022-09-13T14:23:09;3.47;;;1.85;;
48665;SDS011;34452;50.796;4.994;2022-09-13T14:25:36;3.63;;;1.60;;
48665;SDS011;34452;50.796;4.994;2022-09-13T14:28:02;7.32;;;1.40;;
48665;SDS011;34452;50.796;4.994;2022-09-13T14:30:34;5.50;;;1.67;;
48665;SDS011;34452;50.796;4.994;2022-09-13T14:33:02;8.52;;;1.73;;
48665;SDS011;34452;50.796;4.994;2022-09-13T14:35:40;4.07;;;1.50;;
48665;SDS011;34452;50.796;4.994;2022-09-13T14:40:58;2.35;;;1.52;;
48665;SDS011;34452;50.796;4.994;2022-09-13T14:43:28;4.22;;;1.35;;
48665;SDS011;34452;50.796;4.994;2022-09-13T14:45:59;3.95;;;1.50;;
48665;SDS011;34452;50.796;4.994;2022-09-13T14:51:20;1.42;;;1.05;;
48665;SDS011;34452;50.796;4.994;2022-09-13T14:53:51;2.60;;;1.48;;
48665;SDS011;34452;50.796;4.994;2022-09-13T14:56:36;2.42;;;1.35;;
48665;SDS011;34452;50.796;4.994;2022-09-13T14:59:11;2.00;;;1.20;;
48665;SDS011;34452;50.796;4.994;2022-09-13T15:01:44;1.58;;;1.30;;
48665;SDS011;34452;50.796;4.994;2022-09-13T15:04:09;5.47;;;1.27;;
48665;SDS011;34452;50.796;4.994;2022-09-13T15:06:36;6.65;;;1.60;;
48665;SDS011;34452;50.796;4.994;2022-09-13T15:11:59;2.70;;;1.30;;
48665;SDS011;34452;50.796;4.994;2022-09-13T15:17:11;2.72;;;1.60;;
48665;SDS011;34452;50.796;4.994;2022-09-13T15:22:40;2.45;;;1.50;;
48665;SDS011;34452;50.796;4.994;2022-09-13T15:25:15;7.07;;;1.83;;
48665;SDS011;34452;50.796;4.994;2022-09-13T15:27:46;4.90;;;1.48;;
48665;SDS011;34452;50.796;4.994;2022-09-13T15:35:49;1.60;;;1.50;;
48665;SDS011;34452;50.796;4.994;2022-09-13T15:43:42;2.60;;;1.45;;
48665;SDS011;34452;50.796;4.994;2022-09-13T15:48:56;5.63;;;1.40;;
48665;SDS011;34452;50.796;4.994;2022-09-13T15:51:23;2.13;;;1.30;;
48665;SDS011;34452;50.796;4.994;2022-09-13T15:56:17;2.83;;;1.75;;
48665;SDS011;34452;50.796;4.994;2022-09-13T15:58:45;3.03;;;1.60;;
48665;SDS011;34452;50.796;4.994;2022-09-13T16:01:11;3.42;;;1.60;;
48665;SDS011;34452;50.796;4.994;2022-09-13T16:03:38;5.43;;;1.77;;
48665;SDS011;34452;50.796;4.994;2022-09-13T16:06:04;4.22;;;1.75;;
48665;SDS011;34452;50.796;4.994;2022-09-13T16:08:32;3.35;;;2.10;;
48665;SDS011;34452;50.796;4.994;2022-09-13T16:10:59;6.57;;;1.90;;
48665;SDS011;34452;50.796;4.994;2022-09-13T16:13:25;5.60;;;1.67;;
48665;SDS011;34452;50.796;4.994;2022-09-13T16:15:51;3.35;;;1.35;;
48665;SDS011;34452;50.796;4.994;2022-09-13T16:18:17;2.13;;;1.40;;
48665;SDS011;34452;50.796;4.994;2022-09-13T16:20:43;5.07;;;1.48;;
48665;SDS011;34452;50.796;4.994;2022-09-13T16:23:09;1.85;;;1.40;;
48665;SDS011;34452;50.796;4.994;2022-09-13T16:25:36;2.88;;;1.33;;
48665;SDS011;34452;50.796;4.994;2022-09-13T16:32:57;1.95;;;1.20;;
48665;SDS011;34452;50.796;4.994;2022-09-13T16:35:23;2.40;;;1.25;;
48665;SDS011;34452;50.796;4.994;2022-09-13T16:37:51;2.38;;;1.00;;
48665;SDS011;34452;50.796;4.994;2022-09-13T16:40:17;2.30;;;1.10;;
48665;SDS011;34452;50.796;4.994;2022-09-13T16:43:02;4.25;;;2.13;;
48665;SDS011;34452;50.796;4.994;2022-09-13T16:45:27;2.40;;;1.70;;
48665;SDS011;34452;50.796;4.994;2022-09-13T16:47:53;4.20;;;2.35;;
48665;SDS011;34452;50.796;4.994;2022-09-13T16:50:19;2.30;;;1.92;;
48665;SDS011;34452;50.796;4.994;2022-09-13T16:52:45;2.88;;;1.83;;
48665;SDS011;34452;50.796;4.994;2022-09-13T16:55:10;3.17;;;1.67;;
48665;SDS011;34452;50.796;4.994;2022-09-13T16:57:36;2.60;;;2.03;;
48665;SDS011;34452;50.796;4.994;2022-09-13T17:00:04;2.00;;;1.80;;
48665;SDS011;34452;50.796;4.994;2022-09-13T17:02:33;3.83;;;1.80;;
48665;SDS011;34452;50.796;4.994;2022-09-13T17:07:25;4.00;;;1.80;;
48665;SDS011;34452;50.796;4.994;2022-09-13T17:09:51;7.05;;;2.08;;
48665;SDS011;34452;50.796;4.994;2022-09-13T17:12:17;7.10;;;2.35;;
48665;SDS011;34452;50.796;4.994;2022-09-13T17:14:43;8.68;;;2.70;;
48665;SDS011;34452;50.796;4.994;2022-09-13T17:17:21;10.15;;;3.78;;
48665;SDS011;34452;50.796;4.994;2022-09-13T17:19:46;14.40;;;3.75;;
48665;SDS011;34452;50.796;4.994;2022-09-13T17:22:12;13.35;;;4.22;;
48665;SDS011;34452;50.796;4.994;2022-09-13T17:24:38;14.35;;;4.03;;
48665;SDS011;34452;50.796;4.994;2022-09-13T17:29:31;6.75;;;3.95;;
48665;SDS011;34452;50.796;4.994;2022-09-13T17:31:58;6.03;;;3.20;;
48665;SDS011;34452;50.796;4.994;2022-09-13T17:34:25;7.78;;;3.45;;
48665;SDS011;34452;50.796;4.994;2022-09-13T17:36:52;7.20;;;3.58;;
48665;SDS011;34452;50.796;4.994;2022-09-13T17:39:18;5.53;;;2.72;;
48665;SDS011;34452;50.796;4.994;2022-09-13T17:44:12;5.05;;;2.60;;
48665;SDS011;34452;50.796;4.994;2022-09-13T17:46:39;8.73;;;2.88;;
48665;SDS011;34452;50.796;4.994;2022-09-13T17:49:05;6.00;;;2.90;;
48665;SDS011;34452;50.796;4.994;2022-09-13T17:51:31;5.30;;;3.08;;
48665;SDS011;34452;50.796;4.994;2022-09-13T17:53:58;5.60;;;3.20;;
48665;SDS011;34452;50.796;4.994;2022-09-13T17:56:27;6.13;;;3.75;;
48665;SDS011;34452;50.796;4.994;2022-09-13T17:58:56;7.75;;;3.60;;
48665;SDS011;34452;50.796;4.994;2022-09-13T18:01:27;10.15;;;3.67;;
48665;SDS011;34452;50.796;4.994;2022-09-13T18:03:53;8.05;;;4.03;;
48665;SDS011;34452;50.796;4.994;2022-09-13T18:06:19;9.98;;;3.70;;
48665;SDS011;34452;50.796;4.994;2022-09-13T18:11:13;6.80;;;2.80;;
48665;SDS011;34452;50.796;4.994;2022-09-13T18:13:42;6.75;;;3.15;;
48665;SDS011;34452;50.796;4.994;2022-09-13T18:16:10;9.10;;;3.40;;
48665;SDS011;34452;50.796;4.994;2022-09-13T18:18:38;7.57;;;2.97;;
48665;SDS011;34452;50.796;4.994;2022-09-13T18:23:31;7.55;;;2.38;;
48665;SDS011;34452;50.796;4.994;2022-09-13T18:25:59;7.93;;;2.80;;
48665;SDS011;34452;50.796;4.994;2022-09-13T18:28:28;9.48;;;2.70;;
48665;SDS011;34452;50.796;4.994;2022-09-13T18:30:55;7.90;;;3.53;;
48665;SDS011;34452;50.796;4.994;2022-09-13T18:33:25;7.57;;;3.08;;
48665;SDS011;34452;50.796;4.994;2022-09-13T18:38:48;11.10;;;4.03;;
48665;SDS011;34452;50.796;4.994;2022-09-13T18:41:15;5.65;;;3.03;;
48665;SDS011;34452;50.796;4.994;2022-09-13T18:43:44;5.90;;;3.90;;
48665;SDS011;34452;50.796;4.994;2022-09-13T18:46:11;7.50;;;3.58;;
48665;SDS011;34452;50.796;4.994;2022-09-13T18:48:41;7.93;;;3.67;;
48665;SDS011;34452;50.796;4.994;2022-09-13T18:51:09;8.45;;;3.60;;
48665;SDS011;34452;50.796;4.994;2022-09-13T18:53:36;10.60;;;3.97;;
48665;SDS011;34452;50.796;4.994;2022-09-13T18:56:03;8.73;;;4.32;;
48665;SDS011;34452;50.796;4.994;2022-09-13T18:58:30;6.43;;;3.80;;
48665;SDS011;34452;50.796;4.994;2022-09-13T19:00:59;7.93;;;4.25;;
48665;SDS011;34452;50.796;4.994;2022-09-13T19:03:26;6.72;;;4.07;;
48665;SDS011;34452;50.796;4.994;2022-09-13T19:05:51;7.15;;;4.03;;
48665;SDS011;34452;50.796;4.994;2022-09-13T19:08:17;5.35;;;3.33;;
48665;SDS011;34452;50.796;4.994;2022-09-13T19:10:43;6.28;;;4.32;;
48665;SDS011;34452;50.796;4.994;2022-09-13T19:13:08;10.10;;;5.15;;
48665;SDS011;34452;50.796;4.994;2022-09-13T19:18:00;10.98;;;5.30;;
48665;SDS011;34452;50.796;4.994;2022-09-13T19:20:26;6.97;;;4.82;;
48665;SDS011;34452;50.796;4.994;2022-09-13T19:22:52;11.10;;;5.30;;
48665;SDS011;34452;50.796;4.994;2022-09-13T19:27:44;7.40;;;4.60;;
48665;SDS011;34452;50.796;4.994;2022-09-13T19:30:10;8.43;;;4.20;;
48665;SDS011;34452;50.796;4.994;2022-09-13T19:32:37;9.95;;;5.05;;
48665;SDS011;34452;50.796;4.994;2022-09-13T19:35:02;14.65;;;5.20;;
48665;SDS011;34452;50.796;4.994;2022-09-13T19:37:28;9.63;;;6.00;;
48665;SDS011;34452;50.796;4.994;2022-09-13T19:39:54;8.13;;;4.88;;
48665;SDS011;34452;50.796;4.994;2022-09-13T19:42:20;9.82;;;5.10;;